sensor_id;sensor_type;location;lat;lon;timestamp;temperature;humidity
21259;DHT22;10787;53.364;-1.480;2023-07-20T00:02:37;13.50;99.90
21259;DHT22;10787;53.364;-1.480;2023-07-20T00:05:21;13.50;99.90
21259;DHT22;10787;53.364;-1.480;2023-07-20T00:08:08;13.50;99.90
21259;DHT22;10787;53.364;-1.480;2023-07-20T00:10:52;13.40;99.90
21259;DHT22;10787;53.364;-1.480;2023-07-20T00:13:37;13.40;99.90
21259;DHT22;10787;53.364;-1.480;2023-07-20T00:16:22;13.40;99.90
21259;DHT22;10787;53.364;-1.480;2023-07-20T00:19:06;13.40;99.90
21259;DHT22;10787;53.364;-1.480;2023-07-20T00:21:52;13.40;99.90
21259;DHT22;10787;53.364;-1.480;2023-07-20T00:24:37;13.40;99.90
21259;DHT22;10787;53.364;-1.480;2023-07-20T00:27:21;13.40;99.90
21259;DHT22;10787;53.364;-1.480;2023-07-20T00:30:06;13.40;99.90
21259;DHT22;10787;53.364;-1.480;2023-07-20T00:32:50;13.30;99.90
21259;DHT22;10787;53.364;-1.480;2023-07-20T00:35:35;13.30;99.90
21259;DHT22;10787;53.364;-1.480;2023-07-20T00:38:19;13.30;99.90
21259;DHT22;10787;53.364;-1.480;2023-07-20T00:41:04;13.30;99.90
21259;DHT22;10787;53.364;-1.480;2023-07-20T00:43:48;13.30;99.90
21259;DHT22;10787;53.364;-1.480;2023-07-20T00:46:33;13.30;99.90
21259;DHT22;10787;53.364;-1.480;2023-07-20T00:49:18;13.30;99.90
21259;DHT22;10787;53.364;-1.480;2023-07-20T00:52:07;13.30;99.90
21259;DHT22;10787;53.364;-1.480;2023-07-20T00:54:52;13.30;99.90
21259;DHT22;10787;53.364;-1.480;2023-07-20T00:57:40;13.20;99.90
21259;DHT22;10787;53.364;-1.480;2023-07-20T01:00:25;13.10;99.90
21259;DHT22;10787;53.364;-1.480;2023-07-20T01:03:10;13.10;1.00
21259;DHT22;10787;53.364;-1.480;2023-07-20T01:05:54;13.10;1.00
21259;DHT22;10787;53.364;-1.480;2023-07-20T01:14:44;13.10;1.00
21259;DHT22;10787;53.364;-1.480;2023-07-20T01:17:29;13.10;99.90
21259;DHT22;10787;53.364;-1.480;2023-07-20T01:20:15;13.10;99.90
21259;DHT22;10787;53.364;-1.480;2023-07-20T01:31:52;13.00;99.90
21259;DHT22;10787;53.364;-1.480;2023-07-20T01:34:39;13.00;99.90
21259;DHT22;10787;53.364;-1.480;2023-07-20T01:37:24;13.00;99.90
21259;DHT22;10787;53.364;-1.480;2023-07-20T01:40:13;13.00;99.90
21259;DHT22;10787;53.364;-1.480;2023-07-20T01:42:59;13.00;99.90
21259;DHT22;10787;53.364;-1.480;2023-07-20T01:45:44;13.00;99.90
21259;DHT22;10787;53.364;-1.480;2023-07-20T01:48:28;13.00;99.90
21259;DHT22;10787;53.364;-1.480;2023-07-20T01:51:13;12.90;99.90
21259;DHT22;10787;53.364;-1.480;2023-07-20T01:53:57;12.90;1.00
21259;DHT22;10787;53.364;-1.480;2023-07-20T01:56:42;12.90;1.00
21259;DHT22;10787;53.364;-1.480;2023-07-20T01:59:26;12.80;1.00
21259;DHT22;10787;53.364;-1.480;2023-07-20T02:02:10;12.80;1.00
21259;DHT22;10787;53.364;-1.480;2023-07-20T02:04:54;12.70;1.00
21259;DHT22;10787;53.364;-1.480;2023-07-20T02:07:38;12.70;1.00
21259;DHT22;10787;53.364;-1.480;2023-07-20T02:10:24;12.80;1.00
21259;DHT22;10787;53.364;-1.480;2023-07-20T02:13:08;12.70;1.00
21259;DHT22;10787;53.364;-1.480;2023-07-20T02:15:52;12.70;1.00
21259;DHT22;10787;53.364;-1.480;2023-07-20T02:18:37;12.70;1.00
21259;DHT22;10787;53.364;-1.480;2023-07-20T02:21:22;12.70;1.00
21259;DHT22;10787;53.364;-1.480;2023-07-20T02:24:06;12.70;1.00
21259;DHT22;10787;53.364;-1.480;2023-07-20T02:26:51;12.70;1.00
21259;DHT22;10787;53.364;-1.480;2023-07-20T02:29:35;12.70;1.00
21259;DHT22;10787;53.364;-1.480;2023-07-20T02:32:19;12.70;1.00
21259;DHT22;10787;53.364;-1.480;2023-07-20T02:35:04;12.70;1.00
21259;DHT22;10787;53.364;-1.480;2023-07-20T02:37:48;12.70;1.00
21259;DHT22;10787;53.364;-1.480;2023-07-20T02:40:33;12.60;1.00
21259;DHT22;10787;53.364;-1.480;2023-07-20T02:43:17;12.60;1.00
21259;DHT22;10787;53.364;-1.480;2023-07-20T02:46:02;12.60;1.00
21259;DHT22;10787;53.364;-1.480;2023-07-20T02:48:46;12.60;1.00
21259;DHT22;10787;53.364;-1.480;2023-07-20T02:51:30;12.60;1.00
21259;DHT22;10787;53.364;-1.480;2023-07-20T02:54:15;12.60;1.00
21259;DHT22;10787;53.364;-1.480;2023-07-20T02:56:59;12.60;1.00
21259;DHT22;10787;53.364;-1.480;2023-07-20T02:59:45;12.60;1.00
21259;DHT22;10787;53.364;-1.480;2023-07-20T03:02:30;12.60;1.00
21259;DHT22;10787;53.364;-1.480;2023-07-20T03:05:15;12.70;1.00
21259;DHT22;10787;53.364;-1.480;2023-07-20T03:08:01;12.70;1.00
21259;DHT22;10787;53.364;-1.480;2023-07-20T03:10:47;12.70;1.00
21259;DHT22;10787;53.364;-1.480;2023-07-20T03:13:31;12.80;1.00
21259;DHT22;10787;53.364;-1.480;2023-07-20T03:16:18;12.80;1.00
21259;DHT22;10787;53.364;-1.480;2023-07-20T03:19:03;12.90;1.00
21259;DHT22;10787;53.364;-1.480;2023-07-20T03:21:47;12.90;1.00
21259;DHT22;10787;53.364;-1.480;2023-07-20T03:24:32;13.00;1.00
21259;DHT22;10787;53.364;-1.480;2023-07-20T03:27:16;13.00;1.00
21259;DHT22;10787;53.364;-1.480;2023-07-20T03:30:01;13.10;1.00
21259;DHT22;10787;53.364;-1.480;2023-07-20T03:32:45;13.10;1.00
21259;DHT22;10787;53.364;-1.480;2023-07-20T03:35:29;13.20;1.00
21259;DHT22;10787;53.364;-1.480;2023-07-20T03:38:14;13.20;1.00
21259;DHT22;10787;53.364;-1.480;2023-07-20T03:40:59;13.30;1.00
21259;DHT22;10787;53.364;-1.480;2023-07-20T03:43:44;13.30;1.00
21259;DHT22;10787;53.364;-1.480;2023-07-20T03:46:28;13.30;1.00
21259;DHT22;10787;53.364;-1.480;2023-07-20T03:49:12;13.30;1.00
21259;DHT22;10787;53.364;-1.480;2023-07-20T03:51:56;13.30;1.00
21259;DHT22;10787;53.364;-1.480;2023-07-20T03:54:40;13.30;1.00
21259;DHT22;10787;53.364;-1.480;2023-07-20T03:57:24;13.30;1.00
21259;DHT22;10787;53.364;-1.480;2023-07-20T04:00:09;13.30;1.00
21259;DHT22;10787;53.364;-1.480;2023-07-20T04:02:53;13.30;1.00
21259;DHT22;10787;53.364;-1.480;2023-07-20T04:05:38;13.30;1.00
21259;DHT22;10787;53.364;-1.480;2023-07-20T04:08:25;13.40;1.00
21259;DHT22;10787;53.364;-1.480;2023-07-20T04:11:09;13.40;1.00
21259;DHT22;10787;53.364;-1.480;2023-07-20T04:13:53;13.50;1.00
21259;DHT22;10787;53.364;-1.480;2023-07-20T04:16:37;13.50;1.00
21259;DHT22;10787;53.364;-1.480;2023-07-20T04:19:21;13.50;1.00
21259;DHT22;10787;53.364;-1.480;2023-07-20T04:22:06;13.50;1.00
21259;DHT22;10787;53.364;-1.480;2023-07-20T04:24:50;13.60;1.00
21259;DHT22;10787;53.364;-1.480;2023-07-20T04:27:35;13.60;1.00
21259;DHT22;10787;53.364;-1.480;2023-07-20T04:30:19;13.70;99.90
21259;DHT22;10787;53.364;-1.480;2023-07-20T04:33:05;13.70;99.90
21259;DHT22;10787;53.364;-1.480;2023-07-20T04:35:53;13.70;1.00
21259;DHT22;10787;53.364;-1.480;2023-07-20T04:38:37;13.70;1.00
21259;DHT22;10787;53.364;-1.480;2023-07-20T04:41:21;13.80;99.90
21259;DHT22;10787;53.364;-1.480;2023-07-20T04:44:05;13.80;99.90
21259;DHT22;10787;53.364;-1.480;2023-07-20T04:46:50;13.80;99.90
21259;DHT22;10787;53.364;-1.480;2023-07-20T04:49:34;13.90;99.90
21259;DHT22;10787;53.364;-1.480;2023-07-20T04:52:19;13.90;99.90
21259;DHT22;10787;53.364;-1.480;2023-07-20T04:55:03;13.90;99.90
21259;DHT22;10787;53.364;-1.480;2023-07-20T04:57:49;14.00;99.90
21259;DHT22;10787;53.364;-1.480;2023-07-20T05:00:34;14.10;99.90
21259;DHT22;10787;53.364;-1.480;2023-07-20T05:03:18;14.10;99.90
21259;DHT22;10787;53.364;-1.480;2023-07-20T05:06:03;14.10;99.90
21259;DHT22;10787;53.364;-1.480;2023-07-20T05:08:47;14.20;99.90
21259;DHT22;10787;53.364;-1.480;2023-07-20T05:11:32;14.20;99.90
21259;DHT22;10787;53.364;-1.480;2023-07-20T05:14:16;14.20;99.90
21259;DHT22;10787;53.364;-1.480;2023-07-20T05:17:00;14.30;99.90
21259;DHT22;10787;53.364;-1.480;2023-07-20T05:19:45;14.30;99.90
21259;DHT22;10787;53.364;-1.480;2023-07-20T05:22:30;14.30;99.90
21259;DHT22;10787;53.364;-1.480;2023-07-20T05:25:15;14.40;99.90
21259;DHT22;10787;53.364;-1.480;2023-07-20T05:28:04;14.50;99.90
21259;DHT22;10787;53.364;-1.480;2023-07-20T05:30:50;14.60;99.90
21259;DHT22;10787;53.364;-1.480;2023-07-20T05:33:35;14.60;99.90
21259;DHT22;10787;53.364;-1.480;2023-07-20T05:36:20;14.80;99.90
21259;DHT22;10787;53.364;-1.480;2023-07-20T05:39:04;14.90;99.90
21259;DHT22;10787;53.364;-1.480;2023-07-20T05:41:48;15.10;99.90
21259;DHT22;10787;53.364;-1.480;2023-07-20T05:44:33;15.30;99.90
21259;DHT22;10787;53.364;-1.480;2023-07-20T05:47:17;15.50;99.90
21259;DHT22;10787;53.364;-1.480;2023-07-20T05:50:01;15.60;99.90
21259;DHT22;10787;53.364;-1.480;2023-07-20T05:52:46;15.60;99.90
21259;DHT22;10787;53.364;-1.480;2023-07-20T05:55:31;15.60;99.90
21259;DHT22;10787;53.364;-1.480;2023-07-20T05:58:16;15.60;99.90
21259;DHT22;10787;53.364;-1.480;2023-07-20T06:01:00;15.60;99.90
21259;DHT22;10787;53.364;-1.480;2023-07-20T06:03:44;15.70;99.90
21259;DHT22;10787;53.364;-1.480;2023-07-20T06:06:28;15.70;99.90
21259;DHT22;10787;53.364;-1.480;2023-07-20T06:09:13;15.70;99.90
21259;DHT22;10787;53.364;-1.480;2023-07-20T06:11:57;15.70;99.90
21259;DHT22;10787;53.364;-1.480;2023-07-20T06:14:42;15.70;99.90
21259;DHT22;10787;53.364;-1.480;2023-07-20T06:17:26;15.70;99.90
21259;DHT22;10787;53.364;-1.480;2023-07-20T06:20:10;15.70;99.90
21259;DHT22;10787;53.364;-1.480;2023-07-20T06:22:56;15.70;99.90
21259;DHT22;10787;53.364;-1.480;2023-07-20T06:25:40;15.60;99.90
21259;DHT22;10787;53.364;-1.480;2023-07-20T06:28:24;15.70;99.90
21259;DHT22;10787;53.364;-1.480;2023-07-20T06:31:09;15.70;99.90
21259;DHT22;10787;53.364;-1.480;2023-07-20T06:33:54;15.70;99.90
21259;DHT22;10787;53.364;-1.480;2023-07-20T06:36:38;15.70;99.90
21259;DHT22;10787;53.364;-1.480;2023-07-20T06:39:22;15.70;99.90
21259;DHT22;10787;53.364;-1.480;2023-07-20T06:42:07;15.70;99.90
21259;DHT22;10787;53.364;-1.480;2023-07-20T06:44:51;15.70;99.90
21259;DHT22;10787;53.364;-1.480;2023-07-20T06:47:37;15.70;99.90
21259;DHT22;10787;53.364;-1.480;2023-07-20T06:50:21;15.80;99.90
21259;DHT22;10787;53.364;-1.480;2023-07-20T06:53:06;15.80;99.90
21259;DHT22;10787;53.364;-1.480;2023-07-20T06:55:50;15.80;99.90
21259;DHT22;10787;53.364;-1.480;2023-07-20T06:58:34;15.90;99.90
21259;DHT22;10787;53.364;-1.480;2023-07-20T07:01:19;15.90;99.90
21259;DHT22;10787;53.364;-1.480;2023-07-20T07:04:05;15.90;99.90
21259;DHT22;10787;53.364;-1.480;2023-07-20T07:06:49;16.00;99.90
21259;DHT22;10787;53.364;-1.480;2023-07-20T07:09:33;16.10;99.90
21259;DHT22;10787;53.364;-1.480;2023-07-20T07:12:18;16.20;99.90
21259;DHT22;10787;53.364;-1.480;2023-07-20T07:15:04;16.20;99.90
21259;DHT22;10787;53.364;-1.480;2023-07-20T07:17:50;16.20;99.90
21259;DHT22;10787;53.364;-1.480;2023-07-20T07:20:34;16.20;99.90
21259;DHT22;10787;53.364;-1.480;2023-07-20T07:23:19;16.20;99.90
21259;DHT22;10787;53.364;-1.480;2023-07-20T07:26:04;16.20;99.90
21259;DHT22;10787;53.364;-1.480;2023-07-20T07:28:48;16.20;99.90
21259;DHT22;10787;53.364;-1.480;2023-07-20T07:31:34;16.20;99.90
21259;DHT22;10787;53.364;-1.480;2023-07-20T07:34:19;16.30;99.90
21259;DHT22;10787;53.364;-1.480;2023-07-20T07:37:04;16.40;99.90
21259;DHT22;10787;53.364;-1.480;2023-07-20T07:39:48;16.40;99.90
21259;DHT22;10787;53.364;-1.480;2023-07-20T07:42:32;16.50;99.90
21259;DHT22;10787;53.364;-1.480;2023-07-20T07:45:16;16.50;99.90
21259;DHT22;10787;53.364;-1.480;2023-07-20T07:48:01;16.50;99.90
21259;DHT22;10787;53.364;-1.480;2023-07-20T07:50:46;16.60;99.90
21259;DHT22;10787;53.364;-1.480;2023-07-20T07:53:30;16.60;99.90
21259;DHT22;10787;53.364;-1.480;2023-07-20T07:56:16;16.60;99.90
21259;DHT22;10787;53.364;-1.480;2023-07-20T07:59:01;16.60;99.90
21259;DHT22;10787;53.364;-1.480;2023-07-20T08:01:46;16.80;99.90
21259;DHT22;10787;53.364;-1.480;2023-07-20T08:04:31;17.00;99.90
21259;DHT22;10787;53.364;-1.480;2023-07-20T08:07:16;17.10;99.90
21259;DHT22;10787;53.364;-1.480;2023-07-20T08:10:00;17.10;99.90
21259;DHT22;10787;53.364;-1.480;2023-07-20T08:12:44;17.20;99.90
21259;DHT22;10787;53.364;-1.480;2023-07-20T08:15:28;17.30;99.90
21259;DHT22;10787;53.364;-1.480;2023-07-20T08:18:13;17.40;99.90
21259;DHT22;10787;53.364;-1.480;2023-07-20T08:20:58;17.60;99.90
21259;DHT22;10787;53.364;-1.480;2023-07-20T08:23:42;17.70;99.90
21259;DHT22;10787;53.364;-1.480;2023-07-20T08:26:26;17.70;99.90
21259;DHT22;10787;53.364;-1.480;2023-07-20T08:29:11;17.80;99.90
21259;DHT22;10787;53.364;-1.480;2023-07-20T08:31:56;17.90;99.90
21259;DHT22;10787;53.364;-1.480;2023-07-20T08:34:41;17.80;99.90
21259;DHT22;10787;53.364;-1.480;2023-07-20T08:37:25;17.80;99.90
21259;DHT22;10787;53.364;-1.480;2023-07-20T08:40:10;17.80;99.90
21259;DHT22;10787;53.364;-1.480;2023-07-20T08:42:56;17.80;99.90
21259;DHT22;10787;53.364;-1.480;2023-07-20T08:45:44;17.60;99.90
21259;DHT22;10787;53.364;-1.480;2023-07-20T08:48:30;17.70;99.90
21259;DHT22;10787;53.364;-1.480;2023-07-20T08:51:15;17.80;99.90
21259;DHT22;10787;53.364;-1.480;2023-07-20T08:54:01;17.80;99.90
21259;DHT22;10787;53.364;-1.480;2023-07-20T08:56:45;18.00;99.90
21259;DHT22;10787;53.364;-1.480;2023-07-20T08:59:31;18.20;99.90
21259;DHT22;10787;53.364;-1.480;2023-07-20T09:02:17;17.90;99.90
21259;DHT22;10787;53.364;-1.480;2023-07-20T09:05:02;18.10;99.90
21259;DHT22;10787;53.364;-1.480;2023-07-20T09:07:47;18.30;99.90
21259;DHT22;10787;53.364;-1.480;2023-07-20T09:10:31;18.20;99.90
21259;DHT22;10787;53.364;-1.480;2023-07-20T09:13:16;18.40;99.90
21259;DHT22;10787;53.364;-1.480;2023-07-20T09:16:00;18.60;99.90
21259;DHT22;10787;53.364;-1.480;2023-07-20T09:18:44;18.40;99.90
21259;DHT22;10787;53.364;-1.480;2023-07-20T09:21:29;18.50;99.90
21259;DHT22;10787;53.364;-1.480;2023-07-20T09:24:15;18.60;99.90
21259;DHT22;10787;53.364;-1.480;2023-07-20T09:27:01;18.60;99.90
21259;DHT22;10787;53.364;-1.480;2023-07-20T09:29:48;18.20;99.90
21259;DHT22;10787;53.364;-1.480;2023-07-20T09:32:47;18.00;99.90
21259;DHT22;10787;53.364;-1.480;2023-07-20T09:35:32;17.90;99.90
21259;DHT22;10787;53.364;-1.480;2023-07-20T09:38:16;18.00;99.90
21259;DHT22;10787;53.364;-1.480;2023-07-20T09:41:01;17.90;99.90
21259;DHT22;10787;53.364;-1.480;2023-07-20T09:43:46;17.90;99.90
21259;DHT22;10787;53.364;-1.480;2023-07-20T09:46:44;18.10;99.90
21259;DHT22;10787;53.364;-1.480;2023-07-20T09:49:29;18.30;99.90
21259;DHT22;10787;53.364;-1.480;2023-07-20T09:52:13;18.50;99.90
21259;DHT22;10787;53.364;-1.480;2023-07-20T09:54:59;18.60;99.90
21259;DHT22;10787;53.364;-1.480;2023-07-20T09:57:44;18.70;99.90
21259;DHT22;10787;53.364;-1.480;2023-07-20T10:00:28;18.80;99.90
21259;DHT22;10787;53.364;-1.480;2023-07-20T10:03:18;18.90;99.90
21259;DHT22;10787;53.364;-1.480;2023-07-20T10:06:06;19.00;99.90
21259;DHT22;10787;53.364;-1.480;2023-07-20T10:08:57;18.80;99.90
21259;DHT22;10787;53.364;-1.480;2023-07-20T10:11:49;18.60;99.90
21259;DHT22;10787;53.364;-1.480;2023-07-20T10:14:38;18.60;99.90
21259;DHT22;10787;53.364;-1.480;2023-07-20T10:17:25;18.70;99.90
21259;DHT22;10787;53.364;-1.480;2023-07-20T10:20:11;18.70;99.90
21259;DHT22;10787;53.364;-1.480;2023-07-20T10:22:57;18.80;99.90
21259;DHT22;10787;53.364;-1.480;2023-07-20T10:25:41;18.70;99.90
21259;DHT22;10787;53.364;-1.480;2023-07-20T10:28:27;18.80;99.90
21259;DHT22;10787;53.364;-1.480;2023-07-20T10:31:13;19.00;99.90
21259;DHT22;10787;53.364;-1.480;2023-07-20T10:33:57;19.30;99.90
21259;DHT22;10787;53.364;-1.480;2023-07-20T10:36:45;19.50;99.90
21259;DHT22;10787;53.364;-1.480;2023-07-20T10:39:32;19.80;99.90
21259;DHT22;10787;53.364;-1.480;2023-07-20T10:42:16;20.00;99.90
21259;DHT22;10787;53.364;-1.480;2023-07-20T10:45:01;20.00;99.90
21259;DHT22;10787;53.364;-1.480;2023-07-20T10:47:46;20.00;99.90
21259;DHT22;10787;53.364;-1.480;2023-07-20T10:50:30;20.00;99.90
21259;DHT22;10787;53.364;-1.480;2023-07-20T10:53:18;19.90;99.90
21259;DHT22;10787;53.364;-1.480;2023-07-20T10:56:12;20.00;99.90
21259;DHT22;10787;53.364;-1.480;2023-07-20T10:58:58;20.20;99.90
21259;DHT22;10787;53.364;-1.480;2023-07-20T11:01:44;20.40;99.90
21259;DHT22;10787;53.364;-1.480;2023-07-20T11:04:42;20.30;99.90
21259;DHT22;10787;53.364;-1.480;2023-07-20T11:07:37;20.40;99.90
21259;DHT22;10787;53.364;-1.480;2023-07-20T11:10:25;20.30;99.90
21259;DHT22;10787;53.364;-1.480;2023-07-20T11:16:04;20.70;99.90
21259;DHT22;10787;53.364;-1.480;2023-07-20T11:18:49;20.70;99.90
21259;DHT22;10787;53.364;-1.480;2023-07-20T11:21:38;20.60;99.90
21259;DHT22;10787;53.364;-1.480;2023-07-20T11:24:25;20.70;99.90
21259;DHT22;10787;53.364;-1.480;2023-07-20T11:27:09;20.60;99.90
21259;DHT22;10787;53.364;-1.480;2023-07-20T11:29:53;20.30;99.90
21259;DHT22;10787;53.364;-1.480;2023-07-20T11:32:47;20.00;99.90
21259;DHT22;10787;53.364;-1.480;2023-07-20T11:35:44;20.00;99.90
21259;DHT22;10787;53.364;-1.480;2023-07-20T11:38:29;20.20;99.90
21259;DHT22;10787;53.364;-1.480;2023-07-20T11:41:14;20.40;99.90
21259;DHT22;10787;53.364;-1.480;2023-07-20T11:43:58;20.50;99.90
21259;DHT22;10787;53.364;-1.480;2023-07-20T11:46:43;20.70;99.90
21259;DHT22;10787;53.364;-1.480;2023-07-20T11:49:41;20.90;99.90
21259;DHT22;10787;53.364;-1.480;2023-07-20T11:52:25;21.20;99.90
21259;DHT22;10787;53.364;-1.480;2023-07-20T11:55:12;21.50;99.90
21259;DHT22;10787;53.364;-1.480;2023-07-20T12:00:47;21.70;99.90
21259;DHT22;10787;53.364;-1.480;2023-07-20T12:03:32;22.00;99.90
21259;DHT22;10787;53.364;-1.480;2023-07-20T12:06:16;22.30;99.90
21259;DHT22;10787;53.364;-1.480;2023-07-20T12:09:00;22.70;99.90
21259;DHT22;10787;53.364;-1.480;2023-07-20T12:11:45;23.50;99.90
21259;DHT22;10787;53.364;-1.480;2023-07-20T12:14:29;23.60;99.90
21259;DHT22;10787;53.364;-1.480;2023-07-20T12:17:14;23.80;99.90
21259;DHT22;10787;53.364;-1.480;2023-07-20T12:19:58;24.30;99.90
21259;DHT22;10787;53.364;-1.480;2023-07-20T12:22:43;24.70;99.90
21259;DHT22;10787;53.364;-1.480;2023-07-20T12:25:38;26.30;99.90
21259;DHT22;10787;53.364;-1.480;2023-07-20T12:28:23;26.70;99.90
21259;DHT22;10787;53.364;-1.480;2023-07-20T12:31:08;27.20;99.90
21259;DHT22;10787;53.364;-1.480;2023-07-20T12:33:54;27.80;99.90
21259;DHT22;10787;53.364;-1.480;2023-07-20T12:36:42;27.80;99.90
21259;DHT22;10787;53.364;-1.480;2023-07-20T12:39:26;27.50;99.90
21259;DHT22;10787;53.364;-1.480;2023-07-20T12:42:10;26.90;99.90
21259;DHT22;10787;53.364;-1.480;2023-07-20T12:44:54;26.90;99.90
21259;DHT22;10787;53.364;-1.480;2023-07-20T12:47:38;27.20;99.90
21259;DHT22;10787;53.364;-1.480;2023-07-20T12:50:22;28.20;99.90
21259;DHT22;10787;53.364;-1.480;2023-07-20T12:53:06;28.30;99.90
21259;DHT22;10787;53.364;-1.480;2023-07-20T12:55:50;28.00;99.90
21259;DHT22;10787;53.364;-1.480;2023-07-20T12:58:34;27.30;99.90
21259;DHT22;10787;53.364;-1.480;2023-07-20T13:01:19;26.50;99.90
21259;DHT22;10787;53.364;-1.480;2023-07-20T13:04:03;26.10;99.90
21259;DHT22;10787;53.364;-1.480;2023-07-20T13:06:47;26.40;99.90
21259;DHT22;10787;53.364;-1.480;2023-07-20T13:09:31;26.60;99.90
21259;DHT22;10787;53.364;-1.480;2023-07-20T13:12:16;26.70;99.90
21259;DHT22;10787;53.364;-1.480;2023-07-20T13:15:02;27.30;99.90
21259;DHT22;10787;53.364;-1.480;2023-07-20T13:17:49;26.80;99.90
21259;DHT22;10787;53.364;-1.480;2023-07-20T13:20:35;26.60;99.90
21259;DHT22;10787;53.364;-1.480;2023-07-20T13:23:19;25.90;99.90
21259;DHT22;10787;53.364;-1.480;2023-07-20T13:26:04;25.40;99.90
21259;DHT22;10787;53.364;-1.480;2023-07-20T13:28:49;24.60;99.90
21259;DHT22;10787;53.364;-1.480;2023-07-20T13:31:33;24.30;99.90
21259;DHT22;10787;53.364;-1.480;2023-07-20T13:34:18;23.90;94.80
21259;DHT22;10787;53.364;-1.480;2023-07-20T13:37:02;24.40;99.90
21259;DHT22;10787;53.364;-1.480;2023-07-20T13:39:47;25.10;99.90
21259;DHT22;10787;53.364;-1.480;2023-07-20T13:42:34;25.40;99.90
21259;DHT22;10787;53.364;-1.480;2023-07-20T13:45:18;25.40;99.90
21259;DHT22;10787;53.364;-1.480;2023-07-20T13:48:03;26.50;99.90
21259;DHT22;10787;53.364;-1.480;2023-07-20T13:50:48;26.60;99.90
21259;DHT22;10787;53.364;-1.480;2023-07-20T13:53:32;27.00;99.90
21259;DHT22;10787;53.364;-1.480;2023-07-20T13:56:16;27.60;99.90
21259;DHT22;10787;53.364;-1.480;2023-07-20T13:59:01;28.00;99.90
21259;DHT22;10787;53.364;-1.480;2023-07-20T14:01:45;28.60;99.90
21259;DHT22;10787;53.364;-1.480;2023-07-20T14:04:30;29.80;99.90
21259;DHT22;10787;53.364;-1.480;2023-07-20T14:07:15;30.30;99.90
21259;DHT22;10787;53.364;-1.480;2023-07-20T14:09:59;30.20;99.90
21259;DHT22;10787;53.364;-1.480;2023-07-20T14:12:43;30.30;99.90
21259;DHT22;10787;53.364;-1.480;2023-07-20T14:15:28;30.10;99.90
21259;DHT22;10787;53.364;-1.480;2023-07-20T14:18:13;29.30;99.90
21259;DHT22;10787;53.364;-1.480;2023-07-20T14:20:58;29.90;99.90
21259;DHT22;10787;53.364;-1.480;2023-07-20T14:23:46;30.40;99.90
21259;DHT22;10787;53.364;-1.480;2023-07-20T14:26:30;30.50;99.90
21259;DHT22;10787;53.364;-1.480;2023-07-20T14:29:14;30.20;99.90
21259;DHT22;10787;53.364;-1.480;2023-07-20T14:31:58;29.80;99.90
21259;DHT22;10787;53.364;-1.480;2023-07-20T14:34:43;28.90;99.90
21259;DHT22;10787;53.364;-1.480;2023-07-20T14:37:27;28.90;99.90
21259;DHT22;10787;53.364;-1.480;2023-07-20T14:40:12;29.00;99.90
21259;DHT22;10787;53.364;-1.480;2023-07-20T14:42:57;28.70;99.10
21259;DHT22;10787;53.364;-1.480;2023-07-20T14:45:41;28.60;94.70
21259;DHT22;10787;53.364;-1.480;2023-07-20T14:48:26;28.10;66.30
21259;DHT22;10787;53.364;-1.480;2023-07-20T14:51:10;27.50;66.60
21259;DHT22;10787;53.364;-1.480;2023-07-20T14:53:54;27.10;63.50
21259;DHT22;10787;53.364;-1.480;2023-07-20T14:56:39;26.40;57.50
21259;DHT22;10787;53.364;-1.480;2023-07-20T14:59:24;26.20;69.60
21259;DHT22;10787;53.364;-1.480;2023-07-20T15:02:08;27.10;95.40
21259;DHT22;10787;53.364;-1.480;2023-07-20T15:04:52;28.20;99.90
21259;DHT22;10787;53.364;-1.480;2023-07-20T15:07:37;27.40;92.80
21259;DHT22;10787;53.364;-1.480;2023-07-20T15:10:21;27.60;87.50
21259;DHT22;10787;53.364;-1.480;2023-07-20T15:13:06;26.70;73.80
21259;DHT22;10787;53.364;-1.480;2023-07-20T15:15:50;26.20;63.00
21259;DHT22;10787;53.364;-1.480;2023-07-20T15:18:35;25.30;48.70
21259;DHT22;10787;53.364;-1.480;2023-07-20T15:21:19;25.40;53.60
21259;DHT22;10787;53.364;-1.480;2023-07-20T15:24:08;24.80;41.10
21259;DHT22;10787;53.364;-1.480;2023-07-20T15:26:52;24.00;31.10
21259;DHT22;10787;53.364;-1.480;2023-07-20T15:29:36;23.20;20.20
21259;DHT22;10787;53.364;-1.480;2023-07-20T15:32:20;22.70;17.20
21259;DHT22;10787;53.364;-1.480;2023-07-20T15:35:05;22.40;12.90
21259;DHT22;10787;53.364;-1.480;2023-07-20T15:37:50;21.80;24.10
21259;DHT22;10787;53.364;-1.480;2023-07-20T15:40:35;21.80;24.00
21259;DHT22;10787;53.364;-1.480;2023-07-20T15:43:20;21.70;33.30
21259;DHT22;10787;53.364;-1.480;2023-07-20T15:49:04;21.40;35.00
21259;DHT22;10787;53.364;-1.480;2023-07-20T15:51:48;21.60;47.00
21259;DHT22;10787;53.364;-1.480;2023-07-20T15:54:32;21.80;49.50
21259;DHT22;10787;53.364;-1.480;2023-07-20T15:57:17;22.00;61.20
21259;DHT22;10787;53.364;-1.480;2023-07-20T16:00:01;22.10;70.90
21259;DHT22;10787;53.364;-1.480;2023-07-20T16:02:46;21.80;68.20
21259;DHT22;10787;53.364;-1.480;2023-07-20T16:05:30;21.50;58.70
21259;DHT22;10787;53.364;-1.480;2023-07-20T16:08:14;21.30;57.90
21259;DHT22;10787;53.364;-1.480;2023-07-20T16:11:00;21.30;67.30
21259;DHT22;10787;53.364;-1.480;2023-07-20T16:13:45;21.40;75.70
21259;DHT22;10787;53.364;-1.480;2023-07-20T16:16:29;21.30;70.10
21259;DHT22;10787;53.364;-1.480;2023-07-20T16:19:14;21.20;66.90
21259;DHT22;10787;53.364;-1.480;2023-07-20T16:21:59;21.30;71.90
21259;DHT22;10787;53.364;-1.480;2023-07-20T16:24:44;21.60;92.50
21259;DHT22;10787;53.364;-1.480;2023-07-20T16:27:28;22.20;99.10
21259;DHT22;10787;53.364;-1.480;2023-07-20T16:30:12;22.90;94.60
21259;DHT22;10787;53.364;-1.480;2023-07-20T16:32:58;23.20;99.90
21259;DHT22;10787;53.364;-1.480;2023-07-20T16:35:45;23.00;79.50
21259;DHT22;10787;53.364;-1.480;2023-07-20T16:38:30;23.40;70.20
21259;DHT22;10787;53.364;-1.480;2023-07-20T16:41:14;24.20;90.40
21259;DHT22;10787;53.364;-1.480;2023-07-20T16:43:59;25.50;96.80
21259;DHT22;10787;53.364;-1.480;2023-07-20T16:46:43;26.40;97.40
21259;DHT22;10787;53.364;-1.480;2023-07-20T16:49:27;26.40;94.90
21259;DHT22;10787;53.364;-1.480;2023-07-20T16:52:11;25.90;95.60
21259;DHT22;10787;53.364;-1.480;2023-07-20T16:54:56;25.80;99.90
21259;DHT22;10787;53.364;-1.480;2023-07-20T16:57:40;26.00;99.90
21259;DHT22;10787;53.364;-1.480;2023-07-20T17:00:24;26.40;99.90
21259;DHT22;10787;53.364;-1.480;2023-07-20T17:03:09;26.20;99.90
21259;DHT22;10787;53.364;-1.480;2023-07-20T17:05:53;25.90;93.70
21259;DHT22;10787;53.364;-1.480;2023-07-20T17:08:38;25.20;87.30
21259;DHT22;10787;53.364;-1.480;2023-07-20T17:11:22;24.90;55.50
21259;DHT22;10787;53.364;-1.480;2023-07-20T17:14:07;24.90;66.80
21259;DHT22;10787;53.364;-1.480;2023-07-20T17:16:52;24.90;65.10
21259;DHT22;10787;53.364;-1.480;2023-07-20T17:19:37;24.50;52.40
21259;DHT22;10787;53.364;-1.480;2023-07-20T17:22:22;24.30;53.50
21259;DHT22;10787;53.364;-1.480;2023-07-20T17:25:07;24.10;46.60
21259;DHT22;10787;53.364;-1.480;2023-07-20T17:27:51;24.30;69.10
21259;DHT22;10787;53.364;-1.480;2023-07-20T17:30:36;23.50;52.80
21259;DHT22;10787;53.364;-1.480;2023-07-20T17:33:20;23.40;64.00